createdAt,value
2023-05-14T00:01:28.658Z,94.20
2023-05-14T00:03:55.349Z,94.40
2023-05-14T00:06:21.975Z,94.30
2023-05-14T00:08:48.550Z,94.30
2023-05-14T00:11:16.050Z,94.20
2023-05-14T00:13:42.644Z,94.20
2023-05-14T00:16:09.299Z,94.50
2023-05-14T00:18:35.978Z,94.60
2023-05-14T00:21:03.053Z,94.60
2023-05-14T00:23:29.689Z,94.40
2023-05-14T00:25:56.352Z,94.50
2023-05-14T00:28:22.927Z,94.70
2023-05-14T00:30:49.519Z,94.60
2023-05-14T00:33:16.210Z,94.60
2023-05-14T00:35:43.263Z,94.70
2023-05-14T00:38:16.688Z,94.60
2023-05-14T00:40:45.721Z,94.60
2023-05-14T00:43:12.592Z,94.60
2023-05-14T00:45:39.406Z,94.50
2023-05-14T00:48:06.516Z,94.40
2023-05-14T00:50:34.538Z,94.60
2023-05-14T00:53:01.236Z,94.80
2023-05-14T00:55:30.643Z,94.60
2023-05-14T00:57:58.788Z,94.70
2023-05-14T01:00:25.941Z,94.50
2023-05-14T01:02:52.930Z,94.60
2023-05-14T01:05:19.992Z,94.70
2023-05-14T01:07:54.316Z,94.60
2023-05-14T01:10:42.106Z,94.70
2023-05-14T01:13:18.420Z,94.70
2023-05-14T01:15:47.272Z,94.70
2023-05-14T01:18:18.159Z,94.60
2023-05-14T01:20:45.395Z,94.70
2023-05-14T01:23:11.987Z,94.90
2023-05-14T01:25:38.714Z,94.70
2023-05-14T01:28:14.455Z,94.70
2023-05-14T01:30:56.942Z,94.60
2023-05-14T01:33:26.082Z,94.80
2023-05-14T01:35:54.104Z,94.90
2023-05-14T01:38:22.974Z,94.80
2023-05-14T01:40:50.780Z,94.70
2023-05-14T01:43:18.440Z,94.90
2023-05-14T01:45:45.250Z,94.90
2023-05-14T01:48:12.515Z,94.90
2023-05-14T01:50:39.277Z,94.90
2023-05-14T01:53:06.411Z,94.90
2023-05-14T01:55:33.060Z,94.90
2023-05-14T01:57:59.787Z,94.90
2023-05-14T02:00:27.169Z,94.90
2023-05-14T02:02:54.033Z,95.00
2023-05-14T02:05:21.083Z,94.90
2023-05-14T02:07:47.740Z,95.00
2023-05-14T02:10:14.410Z,95.00
2023-05-14T02:12:41.166Z,95.00
2023-05-14T02:15:10.772Z,95.00
2023-05-14T02:17:37.536Z,95.50
2023-05-14T02:20:04.772Z,95.20
2023-05-14T02:22:31.595Z,95.20
2023-05-14T02:24:58.266Z,95.10
2023-05-14T02:27:24.883Z,95.00
2023-05-14T02:29:51.533Z,95.20
2023-05-14T02:32:18.257Z,95.20
2023-05-14T02:34:45.209Z,95.20
2023-05-14T02:37:11.835Z,95.10
2023-05-14T02:39:38.421Z,95.10
2023-05-14T02:42:06.947Z,95.10
2023-05-14T02:44:33.639Z,95.20
2023-05-14T02:47:00.470Z,95.20
2023-05-14T02:49:27.214Z,95.10
2023-05-14T02:51:54.363Z,95.10
2023-05-14T02:54:21.101Z,95.20
2023-05-14T02:56:47.778Z,95.20
2023-05-14T02:59:14.390Z,95.10
2023-05-14T03:01:41.702Z,95.10
2023-05-14T03:04:08.855Z,95.20
2023-05-14T03:06:35.486Z,95.40
2023-05-14T03:09:02.181Z,95.40
2023-05-14T03:11:28.890Z,95.40
2023-05-14T03:13:55.632Z,95.50
2023-05-14T03:16:22.580Z,95.40
2023-05-14T03:18:49.686Z,95.50
2023-05-14T03:21:16.370Z,95.50
2023-05-14T03:23:43.205Z,95.60
2023-05-14T03:26:09.854Z,95.60
2023-05-14T03:28:36.441Z,95.80
2023-05-14T03:31:03.122Z,95.90
2023-05-14T03:33:31.068Z,95.90
2023-05-14T03:35:57.695Z,95.80
2023-05-14T03:38:24.300Z,95.70
2023-05-14T03:40:50.905Z,95.90
2023-05-14T03:43:17.586Z,95.80
2023-05-14T03:45:44.363Z,95.80
2023-05-14T03:48:11.304Z,95.80
2023-05-14T03:50:38.406Z,95.80
2023-05-14T03:53:06.175Z,95.90
2023-05-14T03:55:32.808Z,96.00
2023-05-14T03:57:59.397Z,96.00
2023-05-14T04:00:26.423Z,96.10
2023-05-14T04:02:53.313Z,96.00
2023-05-14T04:05:23.064Z,96.00
2023-05-14T04:07:49.941Z,96.20
2023-05-14T04:10:16.575Z,96.10
2023-05-14T04:12:43.256Z,96.30
2023-05-14T04:15:10.451Z,96.30
2023-05-14T04:17:37.206Z,96.40
2023-05-14T04:20:04.306Z,96.20
2023-05-14T04:22:31.956Z,96.30
2023-05-14T04:24:58.534Z,96.40
2023-05-14T04:27:25.207Z,96.40
2023-05-14T04:29:51.961Z,96.50
2023-05-14T04:32:18.666Z,96.50
2023-05-14T04:34:46.747Z,96.50
2023-05-14T04:37:13.919Z,96.50
2023-05-14T04:39:40.497Z,96.40
2023-05-14T04:42:07.745Z,96.40
2023-05-14T04:44:35.352Z,96.50
2023-05-14T04:47:02.672Z,96.40
2023-05-14T04:49:30.233Z,96.40
2023-05-14T04:51:56.877Z,96.50
2023-05-14T04:54:23.538Z,96.50
2023-05-14T04:56:50.744Z,96.50
2023-05-14T04:59:17.507Z,96.60
2023-05-14T05:01:45.164Z,96.70
2023-05-14T05:04:11.888Z,96.50
2023-05-14T05:06:38.474Z,96.80
2023-05-14T05:09:05.059Z,96.90
2023-05-14T05:11:31.685Z,96.70
2023-05-14T05:13:58.294Z,96.90
2023-05-14T05:16:24.948Z,96.80
2023-05-14T05:18:51.620Z,96.90
2023-05-14T05:21:18.313Z,97.00
2023-05-14T05:23:44.916Z,96.90
2023-05-14T05:26:11.537Z,96.70
2023-05-14T05:28:38.145Z,96.80
2023-05-14T05:31:05.207Z,96.90
2023-05-14T05:33:31.879Z,96.90
2023-05-14T05:35:58.465Z,96.90
2023-05-14T05:38:25.060Z,96.80
2023-05-14T05:40:52.222Z,96.90
2023-05-14T05:43:18.828Z,96.80
2023-05-14T05:45:45.996Z,96.80
2023-05-14T05:48:12.804Z,96.80
2023-05-14T05:50:41.403Z,96.90
2023-05-14T05:53:08.260Z,97.00
2023-05-14T05:55:35.063Z,96.90
2023-05-14T05:58:01.875Z,96.70
2023-05-14T06:00:28.850Z,96.80
2023-05-14T06:02:56.502Z,96.90
2023-05-14T06:05:23.909Z,97.00
2023-05-14T06:07:50.938Z,96.90
2023-05-14T06:10:17.706Z,96.90
2023-05-14T06:12:44.503Z,96.90
2023-05-14T06:15:12.812Z,96.80
2023-05-14T06:17:39.534Z,97.00
2023-05-14T06:20:07.907Z,97.60
2023-05-14T06:22:34.893Z,97.00
2023-05-14T06:25:01.865Z,97.10
2023-05-14T06:27:28.793Z,97.30
2023-05-14T06:29:55.857Z,97.10
2023-05-14T06:32:23.052Z,97.40
2023-05-14T06:34:53.371Z,97.10
2023-05-14T06:37:20.345Z,96.90
2023-05-14T06:39:50.173Z,96.90
2023-05-14T06:42:17.801Z,97.00
2023-05-14T06:44:45.301Z,96.90
2023-05-14T06:47:12.168Z,97.10
2023-05-14T06:49:39.389Z,97.40
2023-05-14T06:52:06.666Z,97.50
2023-05-14T06:54:33.948Z,97.30
2023-05-14T06:57:00.824Z,97.70
2023-05-14T06:59:27.875Z,97.30
2023-05-14T07:01:54.712Z,97.30
2023-05-14T07:04:21.619Z,97.80
2023-05-14T07:06:48.494Z,97.50
2023-05-14T07:09:16.474Z,97.20
2023-05-14T07:11:43.434Z,97.10
2023-05-14T07:14:10.684Z,97.80
2023-05-14T07:16:40.150Z,97.30
2023-05-14T07:19:07.162Z,97.40
2023-05-14T07:21:35.681Z,97.70
2023-05-14T07:24:02.558Z,97.90
2023-05-14T07:26:32.678Z,97.20
2023-05-14T07:29:01.580Z,97.00
2023-05-14T07:31:31.298Z,97.10
2023-05-14T07:33:58.110Z,97.20
2023-05-14T07:36:24.988Z,97.40
2023-05-14T07:38:54.498Z,96.80
2023-05-14T07:41:24.433Z,97.40
2023-05-14T07:43:51.356Z,96.60
2023-05-14T07:46:20.963Z,97.60
2023-05-14T07:48:47.659Z,97.30
2023-05-14T07:51:14.383Z,96.50
2023-05-14T07:53:41.120Z,96.60
2023-05-14T07:56:11.026Z,96.60
2023-05-14T07:58:37.845Z,95.90
2023-05-14T08:01:07.085Z,95.50
2023-05-14T08:03:34.245Z,95.30
2023-05-14T08:06:01.123Z,95.50
2023-05-14T08:08:27.777Z,95.20
2023-05-14T08:10:54.501Z,95.60
2023-05-14T08:13:21.368Z,96.00
2023-05-14T08:15:49.251Z,94.70
2023-05-14T08:18:15.921Z,95.40
2023-05-14T08:20:42.604Z,95.60
2023-05-14T08:23:09.539Z,94.70
2023-05-14T08:25:36.272Z,94.60
2023-05-14T08:28:02.932Z,94.80
2023-05-14T08:30:29.546Z,95.00
2023-05-14T08:32:56.221Z,93.90
2023-05-14T08:35:22.869Z,94.80
2023-05-14T08:37:50.242Z,94.40
2023-05-14T08:40:17.207Z,95.10
2023-05-14T08:42:44.950Z,94.50
2023-05-14T08:45:25.517Z,93.50
2023-05-14T08:47:52.574Z,92.70
2023-05-14T08:50:23.653Z,92.10
2023-05-14T08:52:51.545Z,92.30
2023-05-14T08:55:18.786Z,92.00
2023-05-14T08:57:46.329Z,92.70
2023-05-14T09:00:14.161Z,92.80
2023-05-14T09:02:41.733Z,91.90
2023-05-14T09:05:12.344Z,92.40
2023-05-14T09:07:39.159Z,92.30
2023-05-14T09:10:06.598Z,93.20
2023-05-14T09:12:33.270Z,91.10
2023-05-14T09:14:59.851Z,90.80
2023-05-14T09:17:27.627Z,90.90
2023-05-14T09:19:54.464Z,92.30
2023-05-14T09:22:21.361Z,93.30
2023-05-14T09:25:04.891Z,92.60
2023-05-14T09:27:33.004Z,93.60
2023-05-14T09:30:17.687Z,91.90
2023-05-14T09:32:45.717Z,92.90
2023-05-14T09:35:22.490Z,92.20
2023-05-14T09:37:53.303Z,91.30
2023-05-14T09:40:21.715Z,91.30
2023-05-14T09:42:49.416Z,90.40
2023-05-14T09:45:16.847Z,90.40
2023-05-14T09:47:44.954Z,90.60
2023-05-14T09:50:12.270Z,90.40
2023-05-14T09:52:39.268Z,90.20
2023-05-14T09:55:06.547Z,91.20
2023-05-14T09:57:33.655Z,91.50
2023-05-14T10:00:00.488Z,90.30
2023-05-14T10:02:37.473Z,89.70
2023-05-14T10:05:06.269Z,88.90
2023-05-14T10:07:48.528Z,87.60
2023-05-14T10:10:24.028Z,87.50
2023-05-14T10:12:58.613Z,87.90
2023-05-14T10:15:43.411Z,88.30
2023-05-14T10:18:12.613Z,90.10
2023-05-14T10:20:41.171Z,91.00
2023-05-14T10:23:07.997Z,90.10
2023-05-14T10:25:36.377Z,90.60
2023-05-14T10:28:04.096Z,90.10
2023-05-14T10:30:32.034Z,87.50
2023-05-14T10:33:11.313Z,84.10
2023-05-14T10:35:57.883Z,85.20
2023-05-14T10:38:35.703Z,86.90
2023-05-14T10:41:07.677Z,87.10
2023-05-14T10:43:39.475Z,85.50
2023-05-14T10:46:07.938Z,92.20
2023-05-14T10:48:36.531Z,86.90
2023-05-14T10:51:03.336Z,85.40
2023-05-14T10:53:41.086Z,86.80
2023-05-14T10:56:13.271Z,88.00
2023-05-14T10:58:44.539Z,89.80
2023-05-14T11:01:15.730Z,88.50
2023-05-14T11:03:45.066Z,86.30
2023-05-14T11:06:16.340Z,88.80
2023-05-14T11:08:44.380Z,90.10
2023-05-14T11:11:13.902Z,88.90
2023-05-14T11:13:42.567Z,89.90
2023-05-14T11:16:21.516Z,90.10
2023-05-14T11:19:01.756Z,90.60
2023-05-14T11:21:29.288Z,91.20
2023-05-14T11:23:56.885Z,89.90
2023-05-14T11:26:24.162Z,90.00
2023-05-14T11:28:50.936Z,90.10
2023-05-14T11:31:17.972Z,89.40
2023-05-14T11:33:44.851Z,89.40
2023-05-14T11:36:12.434Z,92.20
2023-05-14T11:38:50.498Z,88.30
2023-05-14T11:41:17.188Z,88.80
2023-05-14T11:43:44.027Z,87.90
2023-05-14T11:46:18.029Z,88.20
2023-05-14T11:48:44.824Z,86.40
2023-05-14T11:51:11.492Z,85.50
2023-05-14T11:53:38.101Z,84.40
2023-05-14T11:56:05.664Z,84.90
2023-05-14T11:58:33.918Z,86.10
2023-05-14T12:01:00.709Z,87.00
2023-05-14T12:03:29.657Z,87.30
2023-05-14T12:05:57.203Z,89.10
2023-05-14T12:08:28.082Z,86.40
2023-05-14T12:10:55.399Z,84.80
2023-05-14T12:13:25.315Z,85.70
2023-05-14T12:15:57.982Z,85.40
2023-05-14T12:18:25.673Z,89.80
2023-05-14T12:20:52.417Z,90.20
2023-05-14T12:23:29.717Z,87.00
2023-05-14T12:26:06.394Z,87.10
2023-05-14T12:28:36.871Z,87.70
2023-05-14T12:31:04.820Z,88.30
2023-05-14T12:33:31.435Z,88.00
2023-05-14T12:36:09.945Z,87.60
2023-05-14T12:38:46.880Z,87.50
2023-05-14T12:41:13.500Z,84.80
2023-05-14T12:43:43.618Z,83.90
2023-05-14T12:46:10.761Z,84.90
2023-05-14T12:48:37.375Z,85.70
2023-05-14T12:51:04.042Z,85.60
2023-05-14T12:53:30.651Z,86.90
2023-05-14T12:55:57.375Z,88.30
2023-05-14T12:58:23.985Z,86.50
2023-05-14T13:00:50.614Z,88.70
2023-05-14T13:03:17.484Z,85.20
2023-05-14T13:05:44.231Z,85.30
2023-05-14T13:08:10.902Z,83.20
2023-05-14T13:10:37.551Z,82.50
2023-05-14T13:13:04.286Z,84.30
2023-05-14T13:15:32.398Z,81.80
2023-05-14T13:17:59.349Z,81.60
2023-05-14T13:20:27.473Z,82.80
2023-05-14T13:22:54.086Z,84.20
2023-05-14T13:25:20.909Z,84.90
2023-05-14T13:27:50.660Z,89.00
2023-05-14T13:30:18.374Z,91.40
2023-05-14T13:32:45.403Z,90.20
2023-05-14T13:35:12.774Z,90.90
2023-05-14T13:37:39.458Z,88.70
2023-05-14T13:40:09.638Z,89.30
2023-05-14T13:42:37.422Z,87.60
2023-05-14T13:45:04.400Z,85.80
2023-05-14T13:47:31.216Z,89.20
2023-05-14T13:49:58.138Z,88.50
2023-05-14T13:52:24.803Z,92.00
2023-05-14T13:54:51.439Z,90.70
2023-05-14T13:57:18.024Z,90.40
2023-05-14T13:59:46.518Z,90.10
2023-05-14T14:02:13.292Z,89.70
2023-05-14T14:04:39.976Z,89.70
2023-05-14T14:07:06.632Z,90.30
2023-05-14T14:09:35.824Z,90.00
2023-05-14T14:12:06.459Z,90.30
2023-05-14T14:14:33.139Z,90.50
2023-05-14T14:16:59.822Z,90.30
2023-05-14T14:19:26.450Z,90.50
2023-05-14T14:21:53.331Z,90.10
2023-05-14T14:24:20.216Z,90.60
2023-05-14T14:26:46.819Z,91.70
2023-05-14T14:29:13.523Z,91.20
2023-05-14T14:31:40.173Z,91.50
2023-05-14T14:34:06.852Z,91.10
2023-05-14T14:36:33.499Z,90.70
2023-05-14T14:39:00.166Z,92.30
2023-05-14T14:41:27.342Z,93.00
2023-05-14T14:43:54.017Z,94.20
2023-05-14T14:46:20.738Z,94.60
2023-05-14T14:48:47.448Z,92.10
2023-05-14T14:51:14.227Z,94.30
2023-05-14T14:53:41.223Z,92.60
2023-05-14T14:56:07.980Z,95.80
2023-05-14T14:58:34.815Z,94.00
2023-05-14T15:01:01.618Z,91.50
2023-05-14T15:03:28.935Z,91.70
2023-05-14T15:05:55.830Z,91.30
2023-05-14T15:08:27.331Z,93.70
2023-05-14T15:10:55.454Z,91.30
2023-05-14T15:13:22.473Z,93.30
2023-05-14T15:15:51.154Z,94.40
2023-05-14T15:18:17.895Z,96.60
2023-05-14T15:20:44.761Z,93.30
2023-05-14T15:23:11.927Z,90.80
2023-05-14T15:25:38.828Z,94.50
2023-05-14T15:28:07.459Z,97.50
2023-05-14T15:30:34.545Z,98.10
2023-05-14T15:33:01.418Z,99.30
2023-05-14T15:35:28.198Z,98.30
2023-05-14T15:37:57.169Z,99.60
2023-05-14T15:40:24.061Z,99.30
2023-05-14T15:42:50.909Z,99.70
2023-05-14T15:45:17.676Z,99.80
2023-05-14T15:47:45.170Z,98.30
2023-05-14T15:50:12.020Z,98.90
2023-05-14T15:52:39.326Z,99.70
2023-05-14T15:55:06.674Z,99.70
2023-05-14T15:57:33.879Z,99.90
2023-05-14T16:00:00.581Z,99.90
2023-05-14T16:02:33.039Z,97.90
2023-05-14T16:04:59.933Z,97.70
2023-05-14T16:07:26.638Z,99.50
2023-05-14T16:09:53.442Z,99.80
2023-05-14T16:12:20.168Z,99.90
2023-05-14T16:14:46.869Z,99.30
2023-05-14T16:17:13.631Z,99.90
2023-05-14T16:19:40.457Z,98.70
2023-05-14T16:22:07.424Z,99.90
2023-05-14T16:24:34.173Z,98.70
2023-05-14T16:27:00.984Z,97.40
2023-05-14T16:29:27.978Z,96.50
2023-05-14T16:31:54.900Z,98.70
2023-05-14T16:34:21.629Z,99.80
2023-05-14T16:36:48.362Z,99.80
2023-05-14T16:39:15.283Z,99.20
2023-05-14T16:41:41.885Z,97.80
2023-05-14T16:44:08.790Z,99.10
2023-05-14T16:46:35.639Z,97.10
2023-05-14T16:49:02.497Z,99.00
2023-05-14T16:51:29.318Z,99.60
2023-05-14T16:53:55.956Z,99.00
2023-05-14T16:56:22.719Z,98.60
2023-05-14T16:58:49.617Z,97.10
2023-05-14T17:01:16.359Z,98.60
2023-05-14T17:03:44.668Z,98.00
2023-05-14T17:06:11.312Z,99.80
2023-05-14T17:08:38.017Z,99.90
2023-05-14T17:11:05.836Z,99.90
2023-05-14T17:13:33.682Z,99.90
2023-05-14T17:16:00.840Z,99.90
2023-05-14T17:18:27.822Z,98.60
2023-05-14T17:20:54.518Z,99.70
2023-05-14T17:23:21.264Z,99.90
2023-05-14T17:25:47.961Z,99.90
2023-05-14T17:28:14.699Z,99.90
2023-05-14T17:30:41.474Z,99.60
2023-05-14T17:33:08.344Z,99.90
2023-05-14T17:35:37.166Z,99.90
2023-05-14T17:38:03.877Z,99.90
2023-05-14T17:40:30.536Z,99.90
2023-05-14T17:42:57.355Z,99.90
2023-05-14T17:45:24.407Z,99.20
2023-05-14T17:47:51.468Z,99.10
2023-05-14T17:50:18.749Z,99.90
2023-05-14T17:52:46.068Z,99.90
2023-05-14T17:55:12.900Z,99.00
2023-05-14T17:57:39.828Z,99.90
2023-05-14T18:00:07.456Z,99.90
2023-05-14T18:02:37.519Z,98.20
2023-05-14T18:05:04.351Z,98.70
2023-05-14T18:07:31.057Z,98.10
2023-05-14T18:09:57.948Z,97.90
2023-05-14T18:12:27.779Z,96.90
2023-05-14T18:14:54.511Z,97.20
2023-05-14T18:17:21.529Z,97.40
2023-05-14T18:19:48.414Z,98.20
2023-05-14T18:22:15.552Z,96.20
2023-05-14T18:24:44.090Z,97.30
2023-05-14T18:27:10.998Z,98.10
2023-05-14T18:29:37.732Z,97.00
2023-05-14T18:32:05.037Z,95.70
2023-05-14T18:34:31.620Z,97.10
2023-05-14T18:36:58.402Z,98.10
2023-05-14T18:39:25.009Z,96.60
2023-05-14T18:41:51.984Z,96.20
2023-05-14T18:44:18.753Z,94.80
2023-05-14T18:46:45.526Z,93.40
2023-05-14T18:49:12.229Z,95.60
2023-05-14T18:51:38.824Z,95.50
2023-05-14T18:54:05.569Z,93.50
2023-05-14T18:56:32.318Z,93.10
2023-05-14T18:58:58.934Z,93.30
2023-05-14T19:01:25.780Z,92.50
2023-05-14T19:03:53.090Z,93.30
2023-05-14T19:06:19.876Z,93.30
2023-05-14T19:08:46.744Z,92.20
2023-05-14T19:11:13.464Z,92.10
2023-05-14T19:13:40.121Z,93.80
2023-05-14T19:16:06.858Z,92.20
2023-05-14T19:18:33.951Z,92.10
2023-05-14T19:21:00.570Z,91.70
2023-05-14T19:23:27.261Z,91.70
2023-05-14T19:25:53.962Z,91.60
2023-05-14T19:28:21.278Z,91.80
2023-05-14T19:30:50.567Z,91.80
2023-05-14T19:33:17.717Z,91.70
2023-05-14T19:35:44.379Z,92.00
2023-05-14T19:38:11.171Z,91.70
2023-05-14T19:40:37.809Z,91.80
2023-05-14T19:43:04.404Z,91.70
2023-05-14T19:45:31.021Z,91.90
2023-05-14T19:47:58.081Z,91.90
2023-05-14T19:50:24.830Z,92.00
2023-05-14T19:52:51.614Z,91.90
2023-05-14T19:55:18.301Z,92.10
2023-05-14T19:57:44.876Z,92.20
2023-05-14T20:00:11.964Z,92.20
2023-05-14T20:02:41.925Z,92.30
2023-05-14T20:05:09.152Z,92.50
2023-05-14T20:07:37.156Z,92.40
2023-05-14T20:10:05.187Z,92.50
2023-05-14T20:12:31.789Z,92.50
2023-05-14T20:14:58.513Z,92.60
2023-05-14T20:17:25.426Z,92.50
2023-05-14T20:19:52.201Z,92.50
2023-05-14T20:22:18.841Z,92.80
2023-05-14T20:24:45.524Z,92.60
2023-05-14T20:27:12.243Z,92.80
2023-05-14T20:29:38.848Z,92.80
2023-05-14T20:32:06.160Z,92.80
2023-05-14T20:34:35.036Z,92.90
2023-05-14T20:37:01.819Z,92.80
2023-05-14T20:39:28.436Z,93.00
2023-05-14T20:41:55.152Z,93.00
2023-05-14T20:44:21.845Z,93.10
2023-05-14T20:46:48.763Z,93.20
2023-05-14T20:49:15.582Z,93.50
2023-05-14T20:51:42.261Z,93.10
2023-05-14T20:54:08.874Z,93.10
2023-05-14T20:56:36.459Z,93.10
2023-05-14T20:59:05.985Z,93.20
2023-05-14T21:01:32.636Z,93.30
2023-05-14T21:03:59.573Z,93.20
2023-05-14T21:06:26.391Z,93.30
2023-05-14T21:08:53.012Z,93.30
2023-05-14T21:11:21.223Z,93.40
2023-05-14T21:13:49.013Z,93.50
2023-05-14T21:16:15.720Z,93.40
2023-05-14T21:18:42.501Z,93.40
2023-05-14T21:21:09.167Z,93.70
2023-05-14T21:23:36.120Z,93.40
2023-05-14T21:26:02.761Z,93.50
2023-05-14T21:28:29.346Z,93.50
2023-05-14T21:30:55.954Z,93.50
2023-05-14T21:33:23.611Z,93.60
2023-05-14T21:35:50.382Z,93.60
2023-05-14T21:38:17.074Z,93.50
2023-05-14T21:40:43.668Z,93.70
2023-05-14T21:43:10.418Z,93.70
2023-05-14T21:45:37.118Z,93.80
2023-05-14T21:48:03.945Z,93.90
2023-05-14T21:50:30.721Z,93.80
2023-05-14T21:52:57.378Z,93.80
2023-05-14T21:55:24.134Z,93.80
2023-05-14T21:57:51.338Z,94.00
2023-05-14T22:00:23.199Z,94.00
2023-05-14T22:02:53.428Z,94.20
2023-05-14T22:05:20.823Z,94.10
2023-05-14T22:07:47.916Z,94.20
2023-05-14T22:10:15.657Z,94.40
2023-05-14T22:12:43.804Z,94.40
2023-05-14T22:15:11.799Z,94.50
2023-05-14T22:17:38.825Z,94.50
2023-05-14T22:20:06.950Z,94.40
2023-05-14T22:22:33.943Z,94.70
2023-05-14T22:25:00.781Z,94.60
2023-05-14T22:27:27.386Z,94.70
2023-05-14T22:29:55.122Z,94.80
2023-05-14T22:32:21.905Z,94.90
2023-05-14T22:34:48.570Z,94.90
2023-05-14T22:37:15.574Z,95.00
2023-05-14T22:39:42.883Z,95.10
2023-05-14T22:42:09.649Z,95.20
2023-05-14T22:44:36.972Z,95.30
2023-05-14T22:47:07.330Z,95.30
2023-05-14T22:49:33.937Z,95.30
2023-05-14T22:52:01.219Z,95.30
2023-05-14T22:54:27.838Z,95.40
2023-05-14T22:56:54.497Z,95.40
2023-05-14T22:59:22.859Z,95.50
2023-05-14T23:01:50.721Z,95.60
2023-05-14T23:04:17.474Z,95.50
2023-05-14T23:06:44.356Z,95.60
2023-05-14T23:09:10.956Z,95.60
2023-05-14T23:11:37.874Z,95.80
2023-05-14T23:14:04.486Z,95.80
2023-05-14T23:16:31.782Z,95.90
2023-05-14T23:18:58.581Z,95.80
2023-05-14T23:21:25.493Z,95.90
2023-05-14T23:23:52.134Z,96.10
2023-05-14T23:26:18.783Z,96.00
2023-05-14T23:28:47.150Z,96.10
2023-05-14T23:31:13.895Z,96.10
2023-05-14T23:33:40.659Z,96.20
2023-05-14T23:36:07.874Z,96.70
2023-05-14T23:38:34.559Z,96.20
2023-05-14T23:41:01.164Z,96.20
2023-05-14T23:43:27.830Z,96.40
2023-05-14T23:45:54.566Z,96.30
2023-05-14T23:48:21.161Z,96.40
2023-05-14T23:50:47.773Z,96.60
2023-05-14T23:53:14.368Z,96.50
2023-05-14T23:55:41.018Z,96.50
2023-05-14T23:58:07.707Z,96.60
